sensor_id;sensor_type;location;lat;lon;timestamp;temperature;humidity
11142;DHT22;5625;50.122;19.864;2023-06-14T00:00:01;13.60;99.90
11142;DHT22;5625;50.122;19.864;2023-06-14T00:02:31;13.70;99.90
11142;DHT22;5625;50.122;19.864;2023-06-14T00:04:59;13.60;99.90
11142;DHT22;5625;50.122;19.864;2023-06-14T00:07:36;13.70;99.90
11142;DHT22;5625;50.122;19.864;2023-06-14T00:10:06;13.60;99.90
11142;DHT22;5625;50.122;19.864;2023-06-14T00:12:34;13.70;99.90
11142;DHT22;5625;50.122;19.864;2023-06-14T00:15:03;13.70;99.90
11142;DHT22;5625;50.122;19.864;2023-06-14T00:17:31;13.70;99.90
11142;DHT22;5625;50.122;19.864;2023-06-14T00:20:02;13.70;99.90
11142;DHT22;5625;50.122;19.864;2023-06-14T00:22:31;13.70;99.90
11142;DHT22;5625;50.122;19.864;2023-06-14T00:25:04;13.70;99.90
11142;DHT22;5625;50.122;19.864;2023-06-14T00:27:49;13.80;99.90
11142;DHT22;5625;50.122;19.864;2023-06-14T00:30:18;13.80;99.90
11142;DHT22;5625;50.122;19.864;2023-06-14T00:32:46;13.80;99.90
11142;DHT22;5625;50.122;19.864;2023-06-14T00:35:17;13.80;99.90
11142;DHT22;5625;50.122;19.864;2023-06-14T00:37:45;13.80;99.90
11142;DHT22;5625;50.122;19.864;2023-06-14T00:40:14;13.80;99.90
11142;DHT22;5625;50.122;19.864;2023-06-14T00:42:43;13.80;99.90
11142;DHT22;5625;50.122;19.864;2023-06-14T00:45:11;13.80;99.90
11142;DHT22;5625;50.122;19.864;2023-06-14T00:47:41;13.90;99.90
11142;DHT22;5625;50.122;19.864;2023-06-14T00:50:11;13.90;99.90
11142;DHT22;5625;50.122;19.864;2023-06-14T00:52:40;13.90;99.90
11142;DHT22;5625;50.122;19.864;2023-06-14T00:55:09;13.90;99.90
11142;DHT22;5625;50.122;19.864;2023-06-14T00:57:38;13.90;99.90
11142;DHT22;5625;50.122;19.864;2023-06-14T01:00:07;13.90;99.90
11142;DHT22;5625;50.122;19.864;2023-06-14T01:02:36;13.90;99.90
11142;DHT22;5625;50.122;19.864;2023-06-14T01:05:06;13.90;99.90
11142;DHT22;5625;50.122;19.864;2023-06-14T01:07:43;13.90;99.90
11142;DHT22;5625;50.122;19.864;2023-06-14T01:10:29;13.90;99.90
11142;DHT22;5625;50.122;19.864;2023-06-14T01:13:09;13.90;99.90
11142;DHT22;5625;50.122;19.864;2023-06-14T01:15:39;13.90;99.90
11142;DHT22;5625;50.122;19.864;2023-06-14T01:18:08;13.90;99.90
11142;DHT22;5625;50.122;19.864;2023-06-14T01:20:44;13.90;99.90
11142;DHT22;5625;50.122;19.864;2023-06-14T01:23:15;13.90;99.90
11142;DHT22;5625;50.122;19.864;2023-06-14T01:25:43;14.00;99.90
11142;DHT22;5625;50.122;19.864;2023-06-14T01:28:12;14.00;99.90
11142;DHT22;5625;50.122;19.864;2023-06-14T01:30:42;14.00;99.90
11142;DHT22;5625;50.122;19.864;2023-06-14T01:33:13;14.00;99.90
11142;DHT22;5625;50.122;19.864;2023-06-14T01:35:44;14.00;99.90
11142;DHT22;5625;50.122;19.864;2023-06-14T01:38:13;14.00;99.90
11142;DHT22;5625;50.122;19.864;2023-06-14T01:40:43;14.00;99.90
11142;DHT22;5625;50.122;19.864;2023-06-14T01:43:13;14.00;99.90
11142;DHT22;5625;50.122;19.864;2023-06-14T01:45:42;14.00;99.90
11142;DHT22;5625;50.122;19.864;2023-06-14T01:48:12;14.00;99.90
11142;DHT22;5625;50.122;19.864;2023-06-14T01:50:41;14.00;99.90
11142;DHT22;5625;50.122;19.864;2023-06-14T01:53:10;14.00;99.90
11142;DHT22;5625;50.122;19.864;2023-06-14T01:55:38;14.00;99.90
11142;DHT22;5625;50.122;19.864;2023-06-14T01:58:11;14.00;99.90
11142;DHT22;5625;50.122;19.864;2023-06-14T02:00:40;14.00;99.90
11142;DHT22;5625;50.122;19.864;2023-06-14T02:03:09;14.00;99.90
11142;DHT22;5625;50.122;19.864;2023-06-14T02:05:38;14.00;99.90
11142;DHT22;5625;50.122;19.864;2023-06-14T02:08:07;14.10;99.90
11142;DHT22;5625;50.122;19.864;2023-06-14T02:10:35;14.10;99.90
11142;DHT22;5625;50.122;19.864;2023-06-14T02:13:03;14.10;99.90
11142;DHT22;5625;50.122;19.864;2023-06-14T02:15:32;14.10;99.90
11142;DHT22;5625;50.122;19.864;2023-06-14T02:18:02;14.10;99.90
11142;DHT22;5625;50.122;19.864;2023-06-14T02:20:31;14.10;99.90
11142;DHT22;5625;50.122;19.864;2023-06-14T02:22:59;14.10;99.90
11142;DHT22;5625;50.122;19.864;2023-06-14T02:25:28;14.10;99.90
11142;DHT22;5625;50.122;19.864;2023-06-14T02:27:56;14.10;99.90
11142;DHT22;5625;50.122;19.864;2023-06-14T02:30:24;14.10;99.90
11142;DHT22;5625;50.122;19.864;2023-06-14T02:32:53;14.10;99.90
11142;DHT22;5625;50.122;19.864;2023-06-14T02:35:21;14.10;99.90
11142;DHT22;5625;50.122;19.864;2023-06-14T02:37:52;14.10;99.90
11142;DHT22;5625;50.122;19.864;2023-06-14T02:40:21;14.10;99.90
11142;DHT22;5625;50.122;19.864;2023-06-14T02:42:49;14.10;99.90
11142;DHT22;5625;50.122;19.864;2023-06-14T02:45:17;14.10;99.90
11142;DHT22;5625;50.122;19.864;2023-06-14T02:47:47;14.10;99.90
11142;DHT22;5625;50.122;19.864;2023-06-14T02:50:17;14.10;99.90
11142;DHT22;5625;50.122;19.864;2023-06-14T02:52:45;14.10;99.90
11142;DHT22;5625;50.122;19.864;2023-06-14T02:55:13;14.10;99.90
11142;DHT22;5625;50.122;19.864;2023-06-14T02:57:41;14.10;99.90
11142;DHT22;5625;50.122;19.864;2023-06-14T03:00:10;14.10;99.90
11142;DHT22;5625;50.122;19.864;2023-06-14T03:02:41;14.10;99.90
11142;DHT22;5625;50.122;19.864;2023-06-14T03:05:10;14.10;99.90
11142;DHT22;5625;50.122;19.864;2023-06-14T03:07:39;14.10;99.90
11142;DHT22;5625;50.122;19.864;2023-06-14T03:10:08;14.10;99.90
11142;DHT22;5625;50.122;19.864;2023-06-14T03:12:37;14.10;99.90
11142;DHT22;5625;50.122;19.864;2023-06-14T03:15:05;14.10;99.90
11142;DHT22;5625;50.122;19.864;2023-06-14T03:17:35;14.10;99.90
11142;DHT22;5625;50.122;19.864;2023-06-14T03:20:07;14.10;99.90
11142;DHT22;5625;50.122;19.864;2023-06-14T03:22:35;14.10;99.90
11142;DHT22;5625;50.122;19.864;2023-06-14T03:25:07;14.10;99.90
11142;DHT22;5625;50.122;19.864;2023-06-14T03:27:36;14.10;99.90
11142;DHT22;5625;50.122;19.864;2023-06-14T03:30:05;14.10;99.90
11142;DHT22;5625;50.122;19.864;2023-06-14T03:32:34;14.10;99.90
11142;DHT22;5625;50.122;19.864;2023-06-14T03:35:03;14.10;99.90
11142;DHT22;5625;50.122;19.864;2023-06-14T03:37:31;14.10;99.90
11142;DHT22;5625;50.122;19.864;2023-06-14T03:40:01;14.10;99.90
11142;DHT22;5625;50.122;19.864;2023-06-14T03:42:34;14.10;99.90
11142;DHT22;5625;50.122;19.864;2023-06-14T03:45:02;14.10;99.90
11142;DHT22;5625;50.122;19.864;2023-06-14T03:47:31;14.10;99.90
11142;DHT22;5625;50.122;19.864;2023-06-14T03:49:59;14.10;99.90
11142;DHT22;5625;50.122;19.864;2023-06-14T03:52:28;14.10;99.90
11142;DHT22;5625;50.122;19.864;2023-06-14T03:54:56;14.10;99.90
11142;DHT22;5625;50.122;19.864;2023-06-14T03:57:29;14.10;99.90
11142;DHT22;5625;50.122;19.864;2023-06-14T03:59:58;14.10;99.90
11142;DHT22;5625;50.122;19.864;2023-06-14T04:02:27;14.10;99.90
11142;DHT22;5625;50.122;19.864;2023-06-14T04:04:55;14.10;99.90
11142;DHT22;5625;50.122;19.864;2023-06-14T04:07:23;14.10;99.90
11142;DHT22;5625;50.122;19.864;2023-06-14T04:09:55;14.10;99.90
11142;DHT22;5625;50.122;19.864;2023-06-14T04:12:23;14.10;99.90
11142;DHT22;5625;50.122;19.864;2023-06-14T04:14:51;14.10;99.90
11142;DHT22;5625;50.122;19.864;2023-06-14T04:17:22;14.10;99.90
11142;DHT22;5625;50.122;19.864;2023-06-14T04:19:50;14.10;99.90
11142;DHT22;5625;50.122;19.864;2023-06-14T04:22:18;14.10;99.90
11142;DHT22;5625;50.122;19.864;2023-06-14T04:24:46;14.10;99.90
11142;DHT22;5625;50.122;19.864;2023-06-14T04:27:30;14.10;99.90
11142;DHT22;5625;50.122;19.864;2023-06-14T04:30:01;14.20;99.90
11142;DHT22;5625;50.122;19.864;2023-06-14T04:32:30;14.10;99.90
11142;DHT22;5625;50.122;19.864;2023-06-14T04:35:00;14.10;99.90
11142;DHT22;5625;50.122;19.864;2023-06-14T04:37:30;14.20;99.90
11142;DHT22;5625;50.122;19.864;2023-06-14T04:39:58;14.10;99.90
11142;DHT22;5625;50.122;19.864;2023-06-14T04:42:27;14.20;99.90
11142;DHT22;5625;50.122;19.864;2023-06-14T04:44:57;14.20;99.90
11142;DHT22;5625;50.122;19.864;2023-06-14T04:47:27;14.20;99.90
11142;DHT22;5625;50.122;19.864;2023-06-14T04:49:58;14.20;99.90
11142;DHT22;5625;50.122;19.864;2023-06-14T04:52:27;14.20;99.90
11142;DHT22;5625;50.122;19.864;2023-06-14T04:54:57;14.20;99.90
11142;DHT22;5625;50.122;19.864;2023-06-14T04:57:25;14.20;99.90
11142;DHT22;5625;50.122;19.864;2023-06-14T04:59:53;14.30;99.90
11142;DHT22;5625;50.122;19.864;2023-06-14T05:02:22;14.30;99.90
11142;DHT22;5625;50.122;19.864;2023-06-14T05:04:51;14.20;99.90
11142;DHT22;5625;50.122;19.864;2023-06-14T05:07:21;14.30;99.90
11142;DHT22;5625;50.122;19.864;2023-06-14T05:09:52;14.30;99.90
11142;DHT22;5625;50.122;19.864;2023-06-14T05:12:20;14.30;99.90
11142;DHT22;5625;50.122;19.864;2023-06-14T05:14:50;14.30;99.90
11142;DHT22;5625;50.122;19.864;2023-06-14T05:17:18;14.30;99.90
11142;DHT22;5625;50.122;19.864;2023-06-14T05:19:47;14.30;99.90
11142;DHT22;5625;50.122;19.864;2023-06-14T05:22:15;14.30;99.90
11142;DHT22;5625;50.122;19.864;2023-06-14T05:24:45;14.40;99.90
11142;DHT22;5625;50.122;19.864;2023-06-14T05:27:16;14.40;99.90
11142;DHT22;5625;50.122;19.864;2023-06-14T05:29:44;14.50;99.90
11142;DHT22;5625;50.122;19.864;2023-06-14T05:32:12;14.50;99.90
11142;DHT22;5625;50.122;19.864;2023-06-14T05:34:40;14.50;99.90
11142;DHT22;5625;50.122;19.864;2023-06-14T05:37:08;14.40;99.90
11142;DHT22;5625;50.122;19.864;2023-06-14T05:39:36;14.50;99.90
11142;DHT22;5625;50.122;19.864;2023-06-14T05:42:06;14.50;99.90
11142;DHT22;5625;50.122;19.864;2023-06-14T05:44:34;14.50;99.90
11142;DHT22;5625;50.122;19.864;2023-06-14T05:47:03;14.60;99.90
11142;DHT22;5625;50.122;19.864;2023-06-14T05:49:31;14.60;99.90
11142;DHT22;5625;50.122;19.864;2023-06-14T05:51:59;14.50;99.90
11142;DHT22;5625;50.122;19.864;2023-06-14T05:54:29;14.50;99.90
11142;DHT22;5625;50.122;19.864;2023-06-14T05:56:57;14.50;99.90
11142;DHT22;5625;50.122;19.864;2023-06-14T05:59:29;14.60;99.90
11142;DHT22;5625;50.122;19.864;2023-06-14T06:01:57;14.50;99.90
11142;DHT22;5625;50.122;19.864;2023-06-14T06:04:25;14.50;99.90
11142;DHT22;5625;50.122;19.864;2023-06-14T06:06:53;14.50;99.90
11142;DHT22;5625;50.122;19.864;2023-06-14T06:09:21;14.50;99.90
11142;DHT22;5625;50.122;19.864;2023-06-14T06:11:49;14.50;99.90
11142;DHT22;5625;50.122;19.864;2023-06-14T06:14:20;14.50;99.90
11142;DHT22;5625;50.122;19.864;2023-06-14T06:16:49;14.50;99.90
11142;DHT22;5625;50.122;19.864;2023-06-14T06:19:19;14.50;99.90
11142;DHT22;5625;50.122;19.864;2023-06-14T06:21:47;14.40;99.90
11142;DHT22;5625;50.122;19.864;2023-06-14T06:24:15;14.40;99.90
11142;DHT22;5625;50.122;19.864;2023-06-14T06:26:44;14.40;99.90
11142;DHT22;5625;50.122;19.864;2023-06-14T06:29:12;14.30;99.90
11142;DHT22;5625;50.122;19.864;2023-06-14T06:31:40;14.30;99.90
11142;DHT22;5625;50.122;19.864;2023-06-14T06:34:16;14.30;99.90
11142;DHT22;5625;50.122;19.864;2023-06-14T06:36:44;14.30;99.90
11142;DHT22;5625;50.122;19.864;2023-06-14T06:39:12;14.40;99.90
11142;DHT22;5625;50.122;19.864;2023-06-14T06:41:41;14.30;99.90
11142;DHT22;5625;50.122;19.864;2023-06-14T06:44:09;14.30;99.90
11142;DHT22;5625;50.122;19.864;2023-06-14T06:46:38;14.40;99.90
11142;DHT22;5625;50.122;19.864;2023-06-14T06:49:09;14.40;99.90
11142;DHT22;5625;50.122;19.864;2023-06-14T06:51:41;14.40;99.90
11142;DHT22;5625;50.122;19.864;2023-06-14T06:54:10;14.40;99.90
11142;DHT22;5625;50.122;19.864;2023-06-14T06:56:38;14.40;99.90
11142;DHT22;5625;50.122;19.864;2023-06-14T06:59:07;14.40;99.90
11142;DHT22;5625;50.122;19.864;2023-06-14T07:01:35;14.50;99.90
11142;DHT22;5625;50.122;19.864;2023-06-14T07:04:03;14.50;99.90
11142;DHT22;5625;50.122;19.864;2023-06-14T07:06:31;14.50;99.90
11142;DHT22;5625;50.122;19.864;2023-06-14T07:09:01;14.60;99.90
11142;DHT22;5625;50.122;19.864;2023-06-14T07:11:31;14.50;99.90
11142;DHT22;5625;50.122;19.864;2023-06-14T07:13:59;14.60;99.90
11142;DHT22;5625;50.122;19.864;2023-06-14T07:16:29;14.60;99.90
11142;DHT22;5625;50.122;19.864;2023-06-14T07:18:57;14.70;99.90
11142;DHT22;5625;50.122;19.864;2023-06-14T07:21:25;14.70;99.90
11142;DHT22;5625;50.122;19.864;2023-06-14T07:23:54;14.80;99.90
11142;DHT22;5625;50.122;19.864;2023-06-14T07:26:24;14.80;99.90
11142;DHT22;5625;50.122;19.864;2023-06-14T07:28:53;14.80;99.90
11142;DHT22;5625;50.122;19.864;2023-06-14T07:31:21;14.80;99.90
11142;DHT22;5625;50.122;19.864;2023-06-14T07:33:51;14.80;99.90
11142;DHT22;5625;50.122;19.864;2023-06-14T07:36:20;14.80;99.90
11142;DHT22;5625;50.122;19.864;2023-06-14T07:38:48;14.70;99.90
11142;DHT22;5625;50.122;19.864;2023-06-14T07:41:16;14.70;99.90
11142;DHT22;5625;50.122;19.864;2023-06-14T07:43:45;14.70;99.90
11142;DHT22;5625;50.122;19.864;2023-06-14T07:46:14;14.70;99.90
11142;DHT22;5625;50.122;19.864;2023-06-14T07:48:42;14.70;99.90
11142;DHT22;5625;50.122;19.864;2023-06-14T07:51:11;14.70;99.90
11142;DHT22;5625;50.122;19.864;2023-06-14T07:53:39;14.80;99.90
11142;DHT22;5625;50.122;19.864;2023-06-14T07:56:07;14.70;99.90
11142;DHT22;5625;50.122;19.864;2023-06-14T07:58:35;14.80;99.90
11142;DHT22;5625;50.122;19.864;2023-06-14T08:01:05;14.90;99.90
11142;DHT22;5625;50.122;19.864;2023-06-14T08:03:36;14.90;99.90
11142;DHT22;5625;50.122;19.864;2023-06-14T08:06:05;14.90;99.90
11142;DHT22;5625;50.122;19.864;2023-06-14T08:08:34;14.90;99.90
11142;DHT22;5625;50.122;19.864;2023-06-14T08:11:02;14.90;99.90
11142;DHT22;5625;50.122;19.864;2023-06-14T08:13:30;14.90;99.90
11142;DHT22;5625;50.122;19.864;2023-06-14T08:15:58;14.90;99.90
11142;DHT22;5625;50.122;19.864;2023-06-14T08:18:29;15.00;99.90
11142;DHT22;5625;50.122;19.864;2023-06-14T08:20:57;15.00;99.90
11142;DHT22;5625;50.122;19.864;2023-06-14T08:23:25;15.00;99.90
11142;DHT22;5625;50.122;19.864;2023-06-14T08:25:53;14.90;99.90
11142;DHT22;5625;50.122;19.864;2023-06-14T08:28:22;14.90;99.90
11142;DHT22;5625;50.122;19.864;2023-06-14T08:30:51;14.90;99.90
11142;DHT22;5625;50.122;19.864;2023-06-14T08:33:19;15.00;99.90
11142;DHT22;5625;50.122;19.864;2023-06-14T08:35:49;15.00;99.90
11142;DHT22;5625;50.122;19.864;2023-06-14T08:38:17;15.10;99.90
11142;DHT22;5625;50.122;19.864;2023-06-14T08:40:47;15.10;99.90
11142;DHT22;5625;50.122;19.864;2023-06-14T08:43:18;15.10;99.90
11142;DHT22;5625;50.122;19.864;2023-06-14T08:45:46;15.20;99.90
11142;DHT22;5625;50.122;19.864;2023-06-14T08:48:18;15.20;99.90
11142;DHT22;5625;50.122;19.864;2023-06-14T08:50:49;15.20;99.90
11142;DHT22;5625;50.122;19.864;2023-06-14T08:53:24;15.20;99.90
11142;DHT22;5625;50.122;19.864;2023-06-14T08:55:54;15.20;99.90
11142;DHT22;5625;50.122;19.864;2023-06-14T08:58:23;15.30;99.90
11142;DHT22;5625;50.122;19.864;2023-06-14T09:00:51;15.30;99.90
11142;DHT22;5625;50.122;19.864;2023-06-14T09:03:20;15.30;99.90
11142;DHT22;5625;50.122;19.864;2023-06-14T09:05:50;15.40;99.90
11142;DHT22;5625;50.122;19.864;2023-06-14T09:08:19;15.40;99.90
11142;DHT22;5625;50.122;19.864;2023-06-14T09:10:49;15.40;99.90
11142;DHT22;5625;50.122;19.864;2023-06-14T09:13:18;15.40;99.90
11142;DHT22;5625;50.122;19.864;2023-06-14T09:15:46;15.40;99.90
11142;DHT22;5625;50.122;19.864;2023-06-14T09:18:14;15.40;99.90
11142;DHT22;5625;50.122;19.864;2023-06-14T09:20:45;15.40;99.90
11142;DHT22;5625;50.122;19.864;2023-06-14T09:23:20;15.40;99.90
11142;DHT22;5625;50.122;19.864;2023-06-14T09:25:49;15.40;99.90
11142;DHT22;5625;50.122;19.864;2023-06-14T09:28:18;15.40;99.90
11142;DHT22;5625;50.122;19.864;2023-06-14T09:30:46;15.40;99.90
11142;DHT22;5625;50.122;19.864;2023-06-14T09:33:17;15.50;99.90
11142;DHT22;5625;50.122;19.864;2023-06-14T09:35:45;15.60;99.90
11142;DHT22;5625;50.122;19.864;2023-06-14T09:38:15;15.70;99.90
11142;DHT22;5625;50.122;19.864;2023-06-14T09:40:43;15.70;99.90
11142;DHT22;5625;50.122;19.864;2023-06-14T09:43:11;15.80;99.90
11142;DHT22;5625;50.122;19.864;2023-06-14T09:45:39;15.90;99.90
11142;DHT22;5625;50.122;19.864;2023-06-14T09:48:08;15.90;99.90
11142;DHT22;5625;50.122;19.864;2023-06-14T09:50:36;15.90;99.90
11142;DHT22;5625;50.122;19.864;2023-06-14T09:53:06;15.90;99.90
11142;DHT22;5625;50.122;19.864;2023-06-14T09:55:37;15.90;99.90
11142;DHT22;5625;50.122;19.864;2023-06-14T09:58:07;15.90;99.90
11142;DHT22;5625;50.122;19.864;2023-06-14T10:00:37;15.90;99.90
11142;DHT22;5625;50.122;19.864;2023-06-14T10:03:12;15.80;99.90
11142;DHT22;5625;50.122;19.864;2023-06-14T10:05:43;15.80;99.90
11142;DHT22;5625;50.122;19.864;2023-06-14T10:08:14;15.80;99.90
11142;DHT22;5625;50.122;19.864;2023-06-14T10:10:45;15.70;99.90
11142;DHT22;5625;50.122;19.864;2023-06-14T10:13:14;15.70;99.90
11142;DHT22;5625;50.122;19.864;2023-06-14T10:15:50;15.70;99.90
11142;DHT22;5625;50.122;19.864;2023-06-14T10:18:27;15.80;99.90
11142;DHT22;5625;50.122;19.864;2023-06-14T10:21:05;15.80;99.90
11142;DHT22;5625;50.122;19.864;2023-06-14T10:23:38;15.80;99.90
11142;DHT22;5625;50.122;19.864;2023-06-14T10:26:18;15.80;99.90
11142;DHT22;5625;50.122;19.864;2023-06-14T10:28:56;15.90;99.90
11142;DHT22;5625;50.122;19.864;2023-06-14T10:31:40;15.90;99.90
11142;DHT22;5625;50.122;19.864;2023-06-14T10:34:09;15.90;99.90
11142;DHT22;5625;50.122;19.864;2023-06-14T10:36:38;16.00;99.90
11142;DHT22;5625;50.122;19.864;2023-06-14T10:39:13;16.00;99.90
11142;DHT22;5625;50.122;19.864;2023-06-14T10:41:53;16.00;99.90
11142;DHT22;5625;50.122;19.864;2023-06-14T10:44:41;16.10;99.90
11142;DHT22;5625;50.122;19.864;2023-06-14T10:47:11;16.10;99.90
11142;DHT22;5625;50.122;19.864;2023-06-14T10:49:50;16.10;99.90
11142;DHT22;5625;50.122;19.864;2023-06-14T10:52:23;16.10;99.90
11142;DHT22;5625;50.122;19.864;2023-06-14T10:55:08;16.20;99.90
11142;DHT22;5625;50.122;19.864;2023-06-14T10:57:45;16.20;99.90
11142;DHT22;5625;50.122;19.864;2023-06-14T11:00:20;16.20;99.90
11142;DHT22;5625;50.122;19.864;2023-06-14T11:05:59;16.20;99.90
11142;DHT22;5625;50.122;19.864;2023-06-14T11:09:00;16.20;99.90
11142;DHT22;5625;50.122;19.864;2023-06-14T11:11:38;16.10;99.90
11142;DHT22;5625;50.122;19.864;2023-06-14T11:14:11;16.20;99.90
11142;DHT22;5625;50.122;19.864;2023-06-14T11:16:39;16.30;99.90
11142;DHT22;5625;50.122;19.864;2023-06-14T11:19:07;16.30;99.90
11142;DHT22;5625;50.122;19.864;2023-06-14T11:21:40;16.40;99.90
11142;DHT22;5625;50.122;19.864;2023-06-14T11:24:11;16.40;99.90
11142;DHT22;5625;50.122;19.864;2023-06-14T11:26:40;16.40;99.90
11142;DHT22;5625;50.122;19.864;2023-06-14T11:29:15;16.50;99.90
11142;DHT22;5625;50.122;19.864;2023-06-14T11:31:44;16.50;99.90
11142;DHT22;5625;50.122;19.864;2023-06-14T11:34:13;16.50;99.90
11142;DHT22;5625;50.122;19.864;2023-06-14T11:36:42;16.60;99.90
11142;DHT22;5625;50.122;19.864;2023-06-14T11:39:10;16.70;99.90
11142;DHT22;5625;50.122;19.864;2023-06-14T11:41:39;16.80;99.90
11142;DHT22;5625;50.122;19.864;2023-06-14T11:44:09;16.90;99.90
11142;DHT22;5625;50.122;19.864;2023-06-14T11:46:38;16.90;99.90
11142;DHT22;5625;50.122;19.864;2023-06-14T11:49:07;17.00;99.90
11142;DHT22;5625;50.122;19.864;2023-06-14T11:51:36;17.10;99.90
11142;DHT22;5625;50.122;19.864;2023-06-14T11:54:06;17.10;99.90
11142;DHT22;5625;50.122;19.864;2023-06-14T11:56:34;17.10;99.90
11142;DHT22;5625;50.122;19.864;2023-06-14T11:59:05;17.20;99.90
11142;DHT22;5625;50.122;19.864;2023-06-14T12:01:37;17.20;99.90
11142;DHT22;5625;50.122;19.864;2023-06-14T12:04:06;17.20;99.90
11142;DHT22;5625;50.122;19.864;2023-06-14T12:06:35;17.30;99.90
11142;DHT22;5625;50.122;19.864;2023-06-14T12:09:07;17.30;99.90
11142;DHT22;5625;50.122;19.864;2023-06-14T12:11:40;17.40;99.90
11142;DHT22;5625;50.122;19.864;2023-06-14T12:14:11;17.50;99.90
11142;DHT22;5625;50.122;19.864;2023-06-14T12:16:40;17.60;99.90
11142;DHT22;5625;50.122;19.864;2023-06-14T12:19:13;17.70;99.90
11142;DHT22;5625;50.122;19.864;2023-06-14T12:21:42;17.80;99.90
11142;DHT22;5625;50.122;19.864;2023-06-14T12:24:12;17.90;99.90
11142;DHT22;5625;50.122;19.864;2023-06-14T12:26:41;18.10;99.90
11142;DHT22;5625;50.122;19.864;2023-06-14T12:29:09;18.30;99.90
11142;DHT22;5625;50.122;19.864;2023-06-14T12:31:41;18.40;99.90
11142;DHT22;5625;50.122;19.864;2023-06-14T12:34:09;18.50;99.90
11142;DHT22;5625;50.122;19.864;2023-06-14T12:36:38;18.50;99.90
11142;DHT22;5625;50.122;19.864;2023-06-14T12:39:11;18.40;99.90
11142;DHT22;5625;50.122;19.864;2023-06-14T12:41:39;18.30;99.90
11142;DHT22;5625;50.122;19.864;2023-06-14T12:44:11;18.30;99.90
11142;DHT22;5625;50.122;19.864;2023-06-14T12:46:42;18.40;99.90
11142;DHT22;5625;50.122;19.864;2023-06-14T12:49:11;18.40;99.90
11142;DHT22;5625;50.122;19.864;2023-06-14T12:51:40;18.40;99.90
11142;DHT22;5625;50.122;19.864;2023-06-14T12:54:10;18.40;99.90
11142;DHT22;5625;50.122;19.864;2023-06-14T12:56:38;18.40;99.90
11142;DHT22;5625;50.122;19.864;2023-06-14T12:59:11;18.50;99.90
11142;DHT22;5625;50.122;19.864;2023-06-14T13:01:39;18.50;99.90
11142;DHT22;5625;50.122;19.864;2023-06-14T13:04:08;18.50;99.90
11142;DHT22;5625;50.122;19.864;2023-06-14T13:06:37;18.50;99.90
11142;DHT22;5625;50.122;19.864;2023-06-14T13:09:05;18.60;99.90
11142;DHT22;5625;50.122;19.864;2023-06-14T13:11:37;18.60;99.90
11142;DHT22;5625;50.122;19.864;2023-06-14T13:14:05;18.50;99.90
11142;DHT22;5625;50.122;19.864;2023-06-14T13:16:51;18.50;99.90
11142;DHT22;5625;50.122;19.864;2023-06-14T13:19:21;18.50;99.90
11142;DHT22;5625;50.122;19.864;2023-06-14T13:21:49;18.50;99.90
11142;DHT22;5625;50.122;19.864;2023-06-14T13:24:17;18.60;99.90
11142;DHT22;5625;50.122;19.864;2023-06-14T13:26:45;18.70;99.90
11142;DHT22;5625;50.122;19.864;2023-06-14T13:29:13;18.80;99.90
11142;DHT22;5625;50.122;19.864;2023-06-14T13:31:44;18.90;99.90
11142;DHT22;5625;50.122;19.864;2023-06-14T13:34:12;18.90;99.90
11142;DHT22;5625;50.122;19.864;2023-06-14T13:36:44;19.00;99.90
11142;DHT22;5625;50.122;19.864;2023-06-14T13:39:12;19.00;99.90
11142;DHT22;5625;50.122;19.864;2023-06-14T13:41:40;19.00;99.90
11142;DHT22;5625;50.122;19.864;2023-06-14T13:44:08;19.10;99.90
11142;DHT22;5625;50.122;19.864;2023-06-14T13:46:40;19.10;99.90
11142;DHT22;5625;50.122;19.864;2023-06-14T13:49:09;19.20;99.90
11142;DHT22;5625;50.122;19.864;2023-06-14T13:51:38;19.30;99.90
11142;DHT22;5625;50.122;19.864;2023-06-14T13:54:08;19.40;99.90
11142;DHT22;5625;50.122;19.864;2023-06-14T13:56:36;19.50;99.90
11142;DHT22;5625;50.122;19.864;2023-06-14T13:59:04;19.60;99.90
11142;DHT22;5625;50.122;19.864;2023-06-14T14:01:32;19.70;99.90
11142;DHT22;5625;50.122;19.864;2023-06-14T14:04:03;19.90;99.90
11142;DHT22;5625;50.122;19.864;2023-06-14T14:06:31;20.00;99.90
11142;DHT22;5625;50.122;19.864;2023-06-14T14:08:59;20.00;99.90
11142;DHT22;5625;50.122;19.864;2023-06-14T14:11:29;20.00;99.90
11142;DHT22;5625;50.122;19.864;2023-06-14T14:14:00;20.00;99.90
11142;DHT22;5625;50.122;19.864;2023-06-14T14:16:28;20.00;99.90
11142;DHT22;5625;50.122;19.864;2023-06-14T14:18:57;20.10;99.90
11142;DHT22;5625;50.122;19.864;2023-06-14T14:21:25;20.10;99.90
11142;DHT22;5625;50.122;19.864;2023-06-14T14:23:53;20.10;99.90
11142;DHT22;5625;50.122;19.864;2023-06-14T14:26:24;20.20;99.90
11142;DHT22;5625;50.122;19.864;2023-06-14T14:28:53;20.30;99.90
11142;DHT22;5625;50.122;19.864;2023-06-14T14:31:24;20.30;99.90
11142;DHT22;5625;50.122;19.864;2023-06-14T14:33:52;20.20;99.90
11142;DHT22;5625;50.122;19.864;2023-06-14T14:36:20;20.30;99.90
11142;DHT22;5625;50.122;19.864;2023-06-14T14:38:51;20.30;99.90
11142;DHT22;5625;50.122;19.864;2023-06-14T14:41:19;20.30;99.90
11142;DHT22;5625;50.122;19.864;2023-06-14T14:43:47;20.20;99.90
11142;DHT22;5625;50.122;19.864;2023-06-14T14:46:17;20.20;99.90
11142;DHT22;5625;50.122;19.864;2023-06-14T14:48:46;20.00;99.90
11142;DHT22;5625;50.122;19.864;2023-06-14T14:51:14;19.90;99.90
11142;DHT22;5625;50.122;19.864;2023-06-14T14:53:42;19.70;99.90
11142;DHT22;5625;50.122;19.864;2023-06-14T14:56:10;19.60;99.90
11142;DHT22;5625;50.122;19.864;2023-06-14T14:58:38;19.60;99.90
11142;DHT22;5625;50.122;19.864;2023-06-14T15:01:06;19.60;99.90
11142;DHT22;5625;50.122;19.864;2023-06-14T15:03:36;19.50;99.90
11142;DHT22;5625;50.122;19.864;2023-06-14T15:06:24;19.50;99.90
11142;DHT22;5625;50.122;19.864;2023-06-14T15:08:52;19.40;99.90
11142;DHT22;5625;50.122;19.864;2023-06-14T15:15:01;19.30;99.90
11142;DHT22;5625;50.122;19.864;2023-06-14T15:17:30;19.10;99.90
11142;DHT22;5625;50.122;19.864;2023-06-14T15:19:59;19.10;99.90
11142;DHT22;5625;50.122;19.864;2023-06-14T15:22:27;19.10;99.90
11142;DHT22;5625;50.122;19.864;2023-06-14T15:24:56;19.20;99.90
11142;DHT22;5625;50.122;19.864;2023-06-14T15:27:24;19.20;99.90
11142;DHT22;5625;50.122;19.864;2023-06-14T15:29:52;19.30;99.90
11142;DHT22;5625;50.122;19.864;2023-06-14T15:32:20;19.30;99.90
11142;DHT22;5625;50.122;19.864;2023-06-14T15:34:51;19.30;99.90
11142;DHT22;5625;50.122;19.864;2023-06-14T15:37:20;19.20;99.90
11142;DHT22;5625;50.122;19.864;2023-06-14T15:39:50;19.10;99.90
11142;DHT22;5625;50.122;19.864;2023-06-14T15:42:18;19.10;99.90
11142;DHT22;5625;50.122;19.864;2023-06-14T15:44:46;19.00;99.90
11142;DHT22;5625;50.122;19.864;2023-06-14T15:47:14;19.10;99.90
11142;DHT22;5625;50.122;19.864;2023-06-14T15:49:43;19.00;99.90
11142;DHT22;5625;50.122;19.864;2023-06-14T15:52:11;18.90;99.90